Time;durP1;ratioP1;P1;durP2;ratioP2;P2;SDS_P1;SDS_P2;PMS_P1;PMS_P2;Temp;Humidity;BMP_temperature;BMP_pressure;BME280_temperature;BME280_humidity;BME280_pressure;Samples;Min_cycle;Max_cycle;Signal;HPM_P1;HPM_P2
2022/02/21 00:01:39;;;;;;;4.43;1.60;;;;;;;;;;5015717;28;20216;-73
2022/02/21 00:04:05;;;;;;;4.80;1.90;;;;;;;;;;5015321;28;20638;-73
2022/02/21 00:06:32;;;;;;;2.53;1.30;;;;;;;;;;5041148;28;20212;-72
2022/02/21 00:08:59;;;;;;;2.70;1.50;;;;;;;;;;5030809;28;20232;-72
2022/02/21 00:11:24;;;;;;;5.30;1.70;;;;;;;;;;5043612;28;20241;-73
2022/02/21 00:13:50;;;;;;;3.27;1.30;;;;;;;;;;5051749;28;20216;-72
2022/02/21 00:16:24;;;;;;;5.80;1.50;;;;;;;;;;5031709;28;20216;-73
2022/02/21 00:18:55;;;;;;;0.63;0.40;;;;;;;;;;5024827;28;20222;-74
2022/02/21 00:21:25;;;;;;;1.03;0.53;;;;;;;;;;5043334;28;20216;-73
2022/02/21 00:23:50;;;;;;;0.40;0.40;;;;;;;;;;5032140;28;20640;-73
2022/02/21 00:26:21;;;;;;;0.40;0.40;;;;;;;;;;5015137;28;20714;-74
2022/02/21 00:28:48;;;;;;;0.40;0.40;;;;;;;;;;5015103;28;20232;-73
2022/02/21 00:31:13;;;;;;;0.30;0.30;;;;;;;;;;4981711;28;20220;-73
2022/02/21 00:33:41;;;;;;;0.33;0.30;;;;;;;;;;5030922;28;20290;-73
2022/02/21 00:36:10;;;;;;;0.20;0.20;;;;;;;;;;5031180;28;20204;-73
2022/02/21 00:38:37;;;;;;;0.83;0.40;;;;;;;;;;5014560;28;20220;-73
2022/02/21 00:41:05;;;;;;;0.30;0.30;;;;;;;;;;5017952;28;20222;-74
2022/02/21 00:43:31;;;;;;;0.50;0.30;;;;;;;;;;5034908;28;20222;-73
2022/02/21 00:45:59;;;;;;;2.37;0.40;;;;;;;;;;5023024;28;20224;-74
2022/02/21 00:48:25;;;;;;;0.73;0.37;;;;;;;;;;5041424;28;20720;-73
2022/02/21 00:50:55;;;;;;;0.47;0.30;;;;;;;;;;5034347;28;20317;-73
2022/02/21 00:53:23;;;;;;;1.53;0.40;;;;;;;;;;5034336;28;20698;-74
2022/02/21 00:55:50;;;;;;;1.90;0.30;;;;;;;;;;5033774;28;20724;-73
2022/02/21 00:58:18;;;;;;;0.20;0.20;;;;;;;;;;5030532;28;20212;-73
2022/02/21 01:00:48;;;;;;;0.97;0.47;;;;;;;;;;5053657;28;20610;-73
2022/02/21 01:03:16;;;;;;;0.40;0.40;;;;;;;;;;5014900;28;20220;-73
2022/02/21 01:05:41;;;;;;;0.63;0.30;;;;;;;;;;5031616;28;20282;-73
2022/02/21 01:08:09;;;;;;;0.40;0.30;;;;;;;;;;5030338;28;20219;-73
2022/02/21 01:10:36;;;;;;;1.20;0.37;;;;;;;;;;5033397;28;20227;-73
2022/02/21 01:13:01;;;;;;;1.57;0.40;;;;;;;;;;5038044;28;20216;-73
2022/02/21 01:15:27;;;;;;;0.87;0.40;;;;;;;;;;4999958;28;20224;-73
2022/02/21 01:18:00;;;;;;;0.47;0.30;;;;;;;;;;5033927;28;20208;-74
2022/02/21 01:20:26;;;;;;;1.87;0.50;;;;;;;;;;5050999;28;20302;-73
2022/02/21 01:22:51;;;;;;;0.73;0.40;;;;;;;;;;5023812;28;20699;-72
2022/02/21 01:25:25;;;;;;;0.90;0.40;;;;;;;;;;5012937;28;20216;-72
2022/02/21 01:27:53;;;;;;;1.13;0.40;;;;;;;;;;5021171;28;20224;-73
2022/02/21 01:30:21;;;;;;;1.03;0.40;;;;;;;;;;5025457;28;20258;-71
2022/02/21 01:32:51;;;;;;;0.97;0.40;;;;;;;;;;5024317;28;20592;-74
2022/02/21 01:35:17;;;;;;;1.77;0.60;;;;;;;;;;5047901;28;20741;-73
2022/02/21 01:37:43;;;;;;;0.60;0.40;;;;;;;;;;5034604;28;20219;-73
2022/02/21 01:40:09;;;;;;;0.73;0.40;;;;;;;;;;5000531;28;20318;-73
2022/02/21 01:42:38;;;;;;;1.83;0.60;;;;;;;;;;5050258;28;20223;-73
2022/02/21 01:45:06;;;;;;;1.37;0.60;;;;;;;;;;5026928;28;20624;-73
2022/02/21 01:47:35;;;;;;;0.40;0.40;;;;;;;;;;5020764;28;20216;-72
2022/02/21 01:50:03;;;;;;;2.70;0.80;;;;;;;;;;5049235;28;20228;-73
2022/02/21 01:52:30;;;;;;;2.57;0.53;;;;;;;;;;5049554;28;20211;-73
2022/02/21 01:54:58;;;;;;;1.80;0.40;;;;;;;;;;5029570;28;20232;-73
2022/02/21 01:57:25;;;;;;;1.83;0.63;;;;;;;;;;5031208;28;20326;-73
2022/02/21 01:59:51;;;;;;;1.80;0.60;;;;;;;;;;5024778;28;20220;-72
2022/02/21 02:02:16;;;;;;;0.53;0.43;;;;;;;;;;5040519;28;20216;-72
2022/02/21 02:04:42;;;;;;;1.07;0.63;;;;;;;;;;5030347;28;20220;-72
2022/02/21 02:07:15;;;;;;;1.77;0.50;;;;;;;;;;5014537;28;20215;-73
2022/02/21 02:09:40;;;;;;;0.90;0.50;;;;;;;;;;5033790;28;20315;-73
2022/02/21 02:12:09;;;;;;;0.40;0.40;;;;;;;;;;5049427;28;20231;-73
2022/02/21 02:14:36;;;;;;;0.97;0.50;;;;;;;;;;5015659;28;20216;-73
2022/02/21 02:17:06;;;;;;;0.97;0.50;;;;;;;;;;5013575;28;20270;-73
2022/02/21 02:19:34;;;;;;;1.43;0.50;;;;;;;;;;5028734;28;20649;-73
2022/02/21 02:22:18;;;;;;;2.07;0.57;;;;;;;;;;5029502;28;20294;-72
2022/02/21 02:24:49;;;;;;;0.40;0.40;;;;;;;;;;5029505;28;20223;-74
2022/02/21 02:27:15;;;;;;;1.03;0.47;;;;;;;;;;5013563;28;20219;-71
2022/02/21 02:29:44;;;;;;;0.63;0.40;;;;;;;;;;5031771;28;20227;-74
2022/02/21 02:32:12;;;;;;;1.97;0.60;;;;;;;;;;5049151;28;20294;-73
2022/02/21 02:34:39;;;;;;;3.47;0.83;;;;;;;;;;5033005;28;20246;-73
2022/02/21 02:37:05;;;;;;;4.33;1.17;;;;;;;;;;4980878;28;20220;-73
2022/02/21 02:39:30;;;;;;;2.00;0.80;;;;;;;;;;5028151;28;20224;-74
2022/02/21 02:42:00;;;;;;;2.87;1.23;;;;;;;;;;5033539;28;20211;-71
2022/02/21 02:44:28;;;;;;;7.03;1.30;;;;;;;;;;5035774;28;20295;-73
2022/02/21 02:46:54;;;;;;;6.63;1.37;;;;;;;;;;5024519;28;20227;-72
2022/02/21 02:49:24;;;;;;;8.77;1.57;;;;;;;;;;5033186;28;20313;-73
2022/02/21 02:51:50;;;;;;;4.93;1.20;;;;;;;;;;5049988;28;20215;-75
2022/02/21 02:54:15;;;;;;;6.10;1.87;;;;;;;;;;5045727;28;20296;-73
2022/02/21 02:56:41;;;;;;;9.40;1.80;;;;;;;;;;5028771;28;20244;-72
2022/02/21 02:59:09;;;;;;;7.60;1.73;;;;;;;;;;5023180;28;20220;-72
2022/02/21 03:01:35;;;;;;;9.67;1.90;;;;;;;;;;5051950;28;20697;-73
2022/02/21 03:04:01;;;;;;;5.87;1.90;;;;;;;;;;5053123;28;20222;-72
2022/02/21 03:06:27;;;;;;;7.00;2.00;;;;;;;;;;5017057;28;20227;-72
2022/02/21 03:08:55;;;;;;;8.67;2.27;;;;;;;;;;5041686;28;20221;-72
2022/02/21 03:11:23;;;;;;;6.53;1.43;;;;;;;;;;5033180;28;20216;-71
2022/02/21 03:13:51;;;;;;;6.97;1.70;;;;;;;;;;4996718;28;20223;-73
2022/02/21 03:16:17;;;;;;;5.53;1.60;;;;;;;;;;5013073;28;20248;-73
2022/02/21 03:18:47;;;;;;;9.00;1.70;;;;;;;;;;5024740;28;20212;-72
2022/02/21 03:21:16;;;;;;;6.27;1.50;;;;;;;;;;5016387;28;20220;-72
2022/02/21 03:23:42;;;;;;;5.53;1.33;;;;;;;;;;5031337;28;20212;-73
2022/02/21 03:26:08;;;;;;;4.57;1.37;;;;;;;;;;5012719;28;20274;-73
2022/02/21 03:28:38;;;;;;;7.07;1.53;;;;;;;;;;5013871;28;20311;-73
2022/02/21 03:31:06;;;;;;;3.53;1.30;;;;;;;;;;5015629;28;20220;-73
2022/02/21 03:33:36;;;;;;;9.70;1.63;;;;;;;;;;5031856;28;20212;-73
2022/02/21 03:36:05;;;;;;;7.97;1.80;;;;;;;;;;5012243;28;20722;-73
2022/02/21 03:38:30;;;;;;;8.33;1.77;;;;;;;;;;4987997;28;20217;-73
2022/02/21 03:41:00;;;;;;;4.37;1.10;;;;;;;;;;5038993;28;20231;-73
2022/02/21 03:43:31;;;;;;;12.03;1.70;;;;;;;;;;5032122;28;20314;-74
2022/02/21 03:45:59;;;;;;;7.57;1.90;;;;;;;;;;5007542;28;20244;-73
2022/02/21 03:48:24;;;;;;;7.13;1.87;;;;;;;;;;5033346;28;20212;-73
2022/02/21 03:50:52;;;;;;;8.83;2.20;;;;;;;;;;5017310;28;20230;-73
2022/02/21 03:53:22;;;;;;;6.93;1.97;;;;;;;;;;5020340;28;20220;-74
2022/02/21 03:55:48;;;;;;;8.43;2.23;;;;;;;;;;5045076;28;20981;-73
2022/02/21 03:58:13;;;;;;;8.33;1.90;;;;;;;;;;4999440;28;20226;-72
2022/02/21 04:00:44;;;;;;;6.60;1.97;;;;;;;;;;5018130;28;20224;-73
2022/02/21 04:03:14;;;;;;;5.53;1.57;;;;;;;;;;5040684;28;20212;-73
2022/02/21 04:05:40;;;;;;;6.30;1.80;;;;;;;;;;5039811;28;20690;-72
2022/02/21 04:08:09;;;;;;;6.60;1.73;;;;;;;;;;5050623;28;20234;-72
2022/02/21 04:10:37;;;;;;;9.77;1.80;;;;;;;;;;5001972;28;20216;-72
2022/02/21 04:13:05;;;;;;;6.90;2.00;;;;;;;;;;5031336;28;20238;-72
2022/02/21 04:15:35;;;;;;;6.67;1.80;;;;;;;;;;5034793;28;20638;-73
2022/02/21 04:18:03;;;;;;;7.07;2.10;;;;;;;;;;5038316;28;20216;-72
2022/02/21 04:20:31;;;;;;;8.20;2.07;;;;;;;;;;5025377;28;20235;-72
2022/02/21 04:23:00;;;;;;;8.67;2.60;;;;;;;;;;5052112;28;20221;-70
2022/02/21 04:25:31;;;;;;;10.53;2.00;;;;;;;;;;5015916;28;20220;-73
2022/02/21 04:27:58;;;;;;;12.37;3.13;;;;;;;;;;5026990;28;20271;-72
2022/02/21 04:30:27;;;;;;;15.17;2.73;;;;;;;;;;5007021;28;20740;-72
2022/02/21 04:32:55;;;;;;;8.63;2.67;;;;;;;;;;5034865;28;20219;-72
2022/02/21 04:35:24;;;;;;;9.93;2.43;;;;;;;;;;5026928;28;20627;-73
2022/02/21 04:37:54;;;;;;;10.90;2.40;;;;;;;;;;4998926;28;20224;-72
2022/02/21 04:40:22;;;;;;;10.87;2.80;;;;;;;;;;5024631;28;20220;-72
2022/02/21 04:42:50;;;;;;;7.90;2.63;;;;;;;;;;5001688;28;20226;-73
2022/02/21 04:45:15;;;;;;;9.17;2.57;;;;;;;;;;5030208;28;20746;-72
2022/02/21 04:47:41;;;;;;;13.97;2.70;;;;;;;;;;5034378;28;20220;-72
2022/02/21 04:50:09;;;;;;;9.83;2.67;;;;;;;;;;5030955;28;20706;-72
2022/02/21 04:52:35;;;;;;;9.67;2.37;;;;;;;;;;5044173;28;20216;-73
2022/02/21 04:55:01;;;;;;;8.63;2.30;;;;;;;;;;5044958;28;20676;-72
2022/02/21 04:57:27;;;;;;;11.27;2.90;;;;;;;;;;5025116;28;20313;-72
2022/02/21 04:59:52;;;;;;;9.93;1.67;;;;;;;;;;5042512;28;20279;-71
2022/02/21 05:02:22;;;;;;;10.80;2.57;;;;;;;;;;5018059;28;20302;-69
2022/02/21 05:04:52;;;;;;;10.07;2.40;;;;;;;;;;5036449;28;20216;-73
2022/02/21 05:07:22;;;;;;;5.30;2.03;;;;;;;;;;5029286;28;20285;-71
2022/02/21 05:09:47;;;;;;;7.27;2.50;;;;;;;;;;5018356;28;20218;-70
2022/02/21 05:12:13;;;;;;;9.53;2.40;;;;;;;;;;5050291;28;20212;-72
2022/02/21 05:14:38;;;;;;;10.23;3.27;;;;;;;;;;5050218;28;20269;-73
2022/02/21 05:17:08;;;;;;;8.47;2.70;;;;;;;;;;5026327;28;20215;-71
2022/02/21 05:19:36;;;;;;;8.93;2.67;;;;;;;;;;5030809;28;20311;-72
2022/02/21 05:22:02;;;;;;;9.07;2.50;;;;;;;;;;5045054;28;20746;-71
2022/02/21 05:24:27;;;;;;;13.30;2.67;;;;;;;;;;5016158;28;20595;-71
2022/02/21 05:26:56;;;;;;;13.70;3.40;;;;;;;;;;5030360;28;20216;-71
2022/02/21 05:29:24;;;;;;;13.63;3.17;;;;;;;;;;5012981;28;20228;-73
2022/02/21 05:31:52;;;;;;;10.63;2.80;;;;;;;;;;5042801;28;20217;-69
2022/02/21 05:34:17;;;;;;;16.47;5.10;;;;;;;;;;5049936;28;20302;-70
2022/02/21 05:36:47;;;;;;;10.70;3.03;;;;;;;;;;5023430;28;20212;-71
2022/02/21 05:39:15;;;;;;;12.93;2.70;;;;;;;;;;5029507;28;20227;-71
2022/02/21 05:41:41;;;;;;;9.93;3.07;;;;;;;;;;5039661;28;20223;-71
2022/02/21 05:44:06;;;;;;;11.93;2.70;;;;;;;;;;5033204;28;20221;-71
2022/02/21 05:46:37;;;;;;;14.63;3.27;;;;;;;;;;5025366;28;20592;-71
2022/02/21 05:49:05;;;;;;;13.53;2.77;;;;;;;;;;5044934;28;20247;-71
2022/02/21 05:51:33;;;;;;;6.30;2.33;;;;;;;;;;5049421;28;20215;-72
2022/02/21 05:54:03;;;;;;;13.87;3.23;;;;;;;;;;5033976;28;20242;-72
2022/02/21 05:56:31;;;;;;;16.00;2.80;;;;;;;;;;5038756;28;20949;-71
2022/02/21 05:58:57;;;;;;;7.77;3.07;;;;;;;;;;5016784;28;20728;-72
2022/02/21 06:01:23;;;;;;;9.93;2.77;;;;;;;;;;5033400;28;20238;-71
2022/02/21 06:03:49;;;;;;;9.53;2.20;;;;;;;;;;5050207;28;20245;-70
2022/02/21 06:06:14;;;;;;;10.33;2.40;;;;;;;;;;5032767;28;20291;-71
2022/02/21 06:08:40;;;;;;;6.50;2.50;;;;;;;;;;5048850;28;20607;-71
2022/02/21 06:11:06;;;;;;;5.80;2.20;;;;;;;;;;5048326;28;20223;-72
2022/02/21 06:13:33;;;;;;;6.93;2.10;;;;;;;;;;5013030;28;20296;-72
2022/02/21 06:16:01;;;;;;;9.80;3.47;;;;;;;;;;5014049;28;20587;-72
2022/02/21 06:18:27;;;;;;;7.33;2.20;;;;;;;;;;5038853;28;20325;-69
2022/02/21 06:20:55;;;;;;;8.80;2.87;;;;;;;;;;5038839;28;20630;-70
2022/02/21 06:23:20;;;;;;;8.17;2.17;;;;;;;;;;5029046;28;20219;-71
2022/02/21 06:25:48;;;;;;;6.07;1.87;;;;;;;;;;5049439;28;20218;-70
2022/02/21 06:28:14;;;;;;;8.47;2.57;;;;;;;;;;5038902;28;20273;-71
2022/02/21 06:30:44;;;;;;;8.57;2.10;;;;;;;;;;5029074;28;20596;-70
2022/02/21 06:33:10;;;;;;;7.03;2.03;;;;;;;;;;5012626;28;20230;-70
2022/02/21 06:35:35;;;;;;;7.30;2.20;;;;;;;;;;5015862;28;20212;-70
2022/02/21 06:38:04;;;;;;;10.00;2.67;;;;;;;;;;5009141;28;20705;-70
2022/02/21 06:40:30;;;;;;;9.40;2.30;;;;;;;;;;5053204;23;20221;-72
2022/02/21 06:42:56;;;;;;;11.17;2.70;;;;;;;;;;4963206;28;20288;-69
2022/02/21 06:45:22;;;;;;;10.50;2.83;;;;;;;;;;4982942;28;20221;-69
2022/02/21 06:47:47;;;;;;;8.97;2.57;;;;;;;;;;4964704;28;20593;-70
2022/02/21 06:50:13;;;;;;;6.83;2.27;;;;;;;;;;4998915;28;20229;-71
2022/02/21 06:52:38;;;;;;;6.23;1.90;;;;;;;;;;4997720;28;20213;-70
2022/02/21 06:55:11;;;;;;;6.57;1.80;;;;;;;;;;4976576;28;20588;-70
2022/02/21 06:57:37;;;;;;;8.73;2.20;;;;;;;;;;4977548;28;20211;-70
2022/02/21 07:00:05;;;;;;;7.27;1.90;;;;;;;;;;4937077;28;20233;-71
2022/02/21 07:02:31;;;;;;;14.53;3.20;;;;;;;;;;4959560;28;20667;-70
2022/02/21 07:05:01;;;;;;;7.77;2.37;;;;;;;;;;4988092;28;20216;-70
2022/02/21 07:07:30;;;;;;;8.23;2.27;;;;;;;;;;4988980;28;20696;-71
2022/02/21 07:09:58;;;;;;;11.93;2.60;;;;;;;;;;4979631;28;20231;-70
2022/02/21 07:12:26;;;;;;;11.03;2.80;;;;;;;;;;4973601;28;20226;-71
2022/02/21 07:14:51;;;;;;;10.10;2.67;;;;;;;;;;4973247;28;20213;-70
2022/02/21 07:17:20;;;;;;;8.43;2.57;;;;;;;;;;4987672;28;20580;-70
2022/02/21 07:19:46;;;;;;;12.93;2.87;;;;;;;;;;4992678;28;20283;-70
2022/02/21 07:22:12;;;;;;;8.47;2.90;;;;;;;;;;4977241;28;20217;-71
2022/02/21 07:24:37;;;;;;;10.47;3.00;;;;;;;;;;4982052;28;20214;-70
2022/02/21 07:27:03;;;;;;;10.63;2.83;;;;;;;;;;5000139;28;20276;-70
2022/02/21 07:29:28;;;;;;;12.40;2.33;;;;;;;;;;4995021;28;20221;-71
2022/02/21 07:31:56;;;;;;;9.27;2.47;;;;;;;;;;4972383;28;20238;-71
2022/02/21 07:34:26;;;;;;;6.67;2.43;;;;;;;;;;4960885;28;20294;-70
2022/02/21 07:36:54;;;;;;;10.03;2.37;;;;;;;;;;4996526;28;20250;-71
2022/02/21 07:39:22;;;;;;;13.17;3.03;;;;;;;;;;4996307;28;20217;-70
2022/02/21 07:41:48;;;;;;;12.33;3.10;;;;;;;;;;4987560;28;20209;-70
2022/02/21 07:44:16;;;;;;;8.80;2.67;;;;;;;;;;4981215;28;20756;-71
2022/02/21 07:46:42;;;;;;;7.30;2.00;;;;;;;;;;4973369;28;20218;-70
2022/02/21 07:49:08;;;;;;;10.07;2.63;;;;;;;;;;4975989;28;20293;-71
2022/02/21 07:51:35;;;;;;;10.87;2.60;;;;;;;;;;4922031;29;20225;-71
2022/02/21 07:54:01;;;;;;;10.97;2.73;;;;;;;;;;4984196;28;20232;-73
2022/02/21 07:56:29;;;;;;;12.23;2.40;;;;;;;;;;4972459;28;20225;-72
2022/02/21 07:58:54;;;;;;;9.33;2.40;;;;;;;;;;4974325;28;20220;-71
2022/02/21 08:01:24;;;;;;;8.80;2.40;;;;;;;;;;4995102;28;20644;-73
2022/02/21 08:03:52;;;;;;;9.77;2.70;;;;;;;;;;4967709;28;20226;-71
2022/02/21 08:06:21;;;;;;;10.83;2.70;;;;;;;;;;4956153;28;20240;-71
2022/02/21 08:08:47;;;;;;;6.00;1.90;;;;;;;;;;4951990;28;20338;-71
2022/02/21 08:11:13;;;;;;;7.20;2.37;;;;;;;;;;4969143;28;20222;-71
2022/02/21 08:13:38;;;;;;;6.30;1.83;;;;;;;;;;5005713;28;20217;-72
2022/02/21 08:16:04;;;;;;;10.27;2.33;;;;;;;;;;4955762;28;20218;-71
2022/02/21 08:18:33;;;;;;;9.63;2.70;;;;;;;;;;4974791;28;20264;-71
2022/02/21 08:21:04;;;;;;;10.23;2.93;;;;;;;;;;4975527;28;20222;-72
2022/02/21 08:23:33;;;;;;;8.87;2.17;;;;;;;;;;4974718;28;20221;-73
2022/02/21 08:25:58;;;;;;;11.90;2.70;;;;;;;;;;4991018;28;20233;-71
2022/02/21 08:28:24;;;;;;;9.53;2.67;;;;;;;;;;4989430;28;20237;-72
2022/02/21 08:30:49;;;;;;;7.73;2.50;;;;;;;;;;4975023;28;20306;-70
2022/02/21 08:33:18;;;;;;;11.97;2.80;;;;;;;;;;5006934;28;20225;-70
2022/02/21 08:35:51;;;;;;;11.20;2.67;;;;;;;;;;4988321;28;20288;-70
2022/02/21 08:38:19;;;;;;;12.60;2.77;;;;;;;;;;4956174;28;20229;-70
2022/02/21 08:40:51;;;;;;;11.10;2.53;;;;;;;;;;4989999;28;20221;-71
2022/02/21 08:43:16;;;;;;;5.70;2.00;;;;;;;;;;5006848;28;20703;-70
2022/02/21 08:45:49;;;;;;;9.33;2.50;;;;;;;;;;4988019;28;20214;-71
2022/02/21 08:48:15;;;;;;;11.53;2.70;;;;;;;;;;4988123;28;20217;-70
2022/02/21 08:50:43;;;;;;;12.43;3.70;;;;;;;;;;4990589;28;20260;-70
2022/02/21 08:53:08;;;;;;;7.60;3.10;;;;;;;;;;4990932;28;20213;-72
2022/02/21 08:55:34;;;;;;;7.00;2.57;;;;;;;;;;4988389;28;20295;-70
2022/02/21 08:57:59;;;;;;;8.63;2.33;;;;;;;;;;4972609;28;20226;-71
2022/02/21 09:00:27;;;;;;;8.33;2.60;;;;;;;;;;4955663;28;20233;-71
2022/02/21 09:02:57;;;;;;;9.43;2.57;;;;;;;;;;4974094;28;20310;-71
2022/02/21 09:05:27;;;;;;;11.23;3.00;;;;;;;;;;4963448;28;20222;-71
2022/02/21 09:07:55;;;;;;;12.03;2.90;;;;;;;;;;4956621;28;20759;-71
2022/02/21 09:10:21;;;;;;;9.57;2.70;;;;;;;;;;4965076;28;20233;-72
2022/02/21 09:12:48;;;;;;;11.43;2.50;;;;;;;;;;4990794;28;20232;-70
2022/02/21 09:15:14;;;;;;;6.77;2.63;;;;;;;;;;4976668;28;20560;-70
2022/02/21 09:17:40;;;;;;;8.83;2.90;;;;;;;;;;4971565;28;20221;-71
2022/02/21 09:20:06;;;;;;;11.63;2.60;;;;;;;;;;4961743;28;20224;-70
2022/02/21 09:22:36;;;;;;;7.90;2.27;;;;;;;;;;4990584;28;20229;-71
2022/02/21 09:25:02;;;;;;;10.57;2.97;;;;;;;;;;4993617;28;20699;-72
2022/02/21 09:27:27;;;;;;;8.73;2.17;;;;;;;;;;4990364;28;20217;-70
2022/02/21 09:29:55;;;;;;;11.07;2.93;;;;;;;;;;4989249;28;20225;-71
2022/02/21 09:32:25;;;;;;;7.97;2.30;;;;;;;;;;4990292;28;20221;-70
2022/02/21 09:34:52;;;;;;;10.23;2.63;;;;;;;;;;5006534;28;20213;-71
2022/02/21 09:37:18;;;;;;;9.60;2.60;;;;;;;;;;4990420;28;20217;-70
2022/02/21 09:39:43;;;;;;;7.60;2.30;;;;;;;;;;4973588;28;20291;-70
2022/02/21 09:42:10;;;;;;;10.13;2.77;;;;;;;;;;4974418;28;20363;-71
2022/02/21 09:44:38;;;;;;;6.20;2.10;;;;;;;;;;4975423;28;20278;-71
2022/02/21 09:47:06;;;;;;;8.63;2.57;;;;;;;;;;4989323;28;20229;-69
2022/02/21 09:49:32;;;;;;;9.70;2.33;;;;;;;;;;4986071;28;20329;-70
2022/02/21 09:52:00;;;;;;;9.10;2.60;;;;;;;;;;4989620;28;20692;-72
2022/02/21 09:54:26;;;;;;;10.30;2.50;;;;;;;;;;4974288;28;20318;-73
2022/02/21 09:56:55;;;;;;;10.43;2.43;;;;;;;;;;4987081;28;20364;-72
2022/02/21 09:59:21;;;;;;;9.00;2.70;;;;;;;;;;4985697;28;20580;-70
2022/02/21 10:01:46;;;;;;;11.50;2.40;;;;;;;;;;5002628;28;20225;-70
2022/02/21 10:04:13;;;;;;;9.23;2.77;;;;;;;;;;4989559;28;20213;-71
2022/02/21 10:06:38;;;;;;;7.87;2.90;;;;;;;;;;4987164;28;20229;-72
2022/02/21 10:09:10;;;;;;;12.10;3.00;;;;;;;;;;4953248;28;20230;-71
2022/02/21 10:11:40;;;;;;;11.07;2.80;;;;;;;;;;4967823;28;20248;-71
2022/02/21 10:14:14;;;;;;;10.20;2.40;;;;;;;;;;4973951;28;20228;-71
2022/02/21 10:16:46;;;;;;;9.63;2.63;;;;;;;;;;4972993;28;20303;-71
2022/02/21 10:19:30;;;;;;;11.33;3.07;;;;;;;;;;4989970;28;20225;-70
2022/02/21 10:22:04;;;;;;;12.77;3.37;;;;;;;;;;4989266;28;20312;-72
2022/02/21 10:24:49;;;;;;;12.87;3.33;;;;;;;;;;4988282;28;20224;-71
2022/02/21 10:27:23;;;;;;;12.40;4.00;;;;;;;;;;4988853;28;20213;-71
2022/02/21 10:30:02;;;;;;;8.13;2.97;;;;;;;;;;5004729;28;20245;-70
2022/02/21 10:32:35;;;;;;;11.33;3.13;;;;;;;;;;4972639;28;20304;-71
2022/02/21 10:35:13;;;;;;;9.10;2.90;;;;;;;;;;4971472;28;20209;-72
2022/02/21 10:37:44;;;;;;;9.77;3.00;;;;;;;;;;4989246;28;20712;-71
2022/02/21 10:40:16;;;;;;;11.47;3.33;;;;;;;;;;4986504;28;20222;-72
2022/02/21 10:42:44;;;;;;;9.10;2.90;;;;;;;;;;4984570;28;20301;-70
2022/02/21 10:45:13;;;;;;;9.10;3.10;;;;;;;;;;4986140;28;20220;-75
2022/02/21 10:47:40;;;;;;;12.03;3.37;;;;;;;;;;4966333;28;20213;-72
2022/02/21 10:50:10;;;;;;;7.33;2.60;;;;;;;;;;4971988;28;20280;-71
2022/02/21 10:52:41;;;;;;;8.13;2.80;;;;;;;;;;4974438;28;20213;-70
2022/02/21 10:55:14;;;;;;;12.77;3.40;;;;;;;;;;4987727;28;20289;-71
2022/02/21 10:57:43;;;;;;;12.10;3.20;;;;;;;;;;4986081;28;20238;-71
2022/02/21 11:00:12;;;;;;;11.80;2.63;;;;;;;;;;4953395;28;20222;-71
2022/02/21 11:02:43;;;;;;;9.03;2.47;;;;;;;;;;4977846;28;20296;-70
2022/02/21 11:05:11;;;;;;;8.83;2.63;;;;;;;;;;4986647;28;20218;-71
2022/02/21 11:07:41;;;;;;;14.23;2.97;;;;;;;;;;4983294;28;20222;-73
2022/02/21 11:10:07;;;;;;;8.70;2.77;;;;;;;;;;4974438;28;20332;-74
2022/02/21 11:12:35;;;;;;;12.57;3.13;;;;;;;;;;4979300;28;20209;-71
2022/02/21 11:15:08;;;;;;;10.80;2.33;;;;;;;;;;4992697;28;20316;-71
2022/02/21 11:17:37;;;;;;;11.00;2.90;;;;;;;;;;4984026;28;20375;-70
2022/02/21 11:20:09;;;;;;;8.57;2.57;;;;;;;;;;4990146;28;20217;-70
2022/02/21 11:22:38;;;;;;;6.30;2.40;;;;;;;;;;4992356;28;20217;-69
2022/02/21 11:25:13;;;;;;;12.57;2.77;;;;;;;;;;5008822;28;20298;-71
2022/02/21 11:27:50;;;;;;;10.33;2.13;;;;;;;;;;4972028;28;20692;-71
2022/02/21 11:30:24;;;;;;;11.87;2.87;;;;;;;;;;4990188;28;20257;-69
2022/02/21 11:33:02;;;;;;;9.47;2.80;;;;;;;;;;4992441;28;20336;-70
2022/02/21 11:35:30;;;;;;;9.00;2.57;;;;;;;;;;4991921;28;20225;-70
2022/02/21 11:38:18;;;;;;;10.90;2.97;;;;;;;;;;4992639;28;20218;-72
2022/02/21 11:40:58;;;;;;;7.47;2.57;;;;;;;;;;4991339;28;20284;-70
2022/02/21 11:43:52;;;;;;;11.10;2.80;;;;;;;;;;4990230;28;20312;-70
2022/02/21 11:46:24;;;;;;;9.60;2.90;;;;;;;;;;4993044;28;20268;-70
2022/02/21 11:49:03;;;;;;;7.10;3.00;;;;;;;;;;4989709;28;20247;-71
2022/02/21 11:51:38;;;;;;;13.17;3.20;;;;;;;;;;4975042;28;20209;-70
2022/02/21 11:54:10;;;;;;;7.37;2.90;;;;;;;;;;4987940;28;20289;-70
2022/02/21 11:56:47;;;;;;;7.83;2.97;;;;;;;;;;4991657;28;20327;-71
2022/02/21 11:59:25;;;;;;;9.77;3.00;;;;;;;;;;5005117;28;20669;-70
2022/02/21 12:02:06;;;;;;;6.93;2.73;;;;;;;;;;4972953;28;20779;-70
2022/02/21 12:04:58;;;;;;;7.80;3.07;;;;;;;;;;4986761;28;20266;-71
2022/02/21 12:07:27;;;;;;;8.00;2.60;;;;;;;;;;4979305;28;20217;-71
2022/02/21 12:10:21;;;;;;;8.97;3.53;;;;;;;;;;4988015;28;20222;-69
2022/02/21 12:12:57;;;;;;;11.00;2.83;;;;;;;;;;4975252;28;20221;-71
2022/02/21 12:15:23;;;;;;;10.40;3.00;;;;;;;;;;4978109;28;20233;-72
2022/02/21 12:18:02;;;;;;;8.67;2.73;;;;;;;;;;4985308;28;20224;-70
2022/02/21 12:20:28;;;;;;;8.53;2.57;;;;;;;;;;4948831;28;20210;-70
2022/02/21 12:23:12;;;;;;;8.60;2.30;;;;;;;;;;4990772;28;20237;-71
2022/02/21 12:25:44;;;;;;;7.07;2.60;;;;;;;;;;4971987;28;20221;-72
2022/02/21 12:28:16;;;;;;;4.00;2.13;;;;;;;;;;4977299;28;20211;-72
2022/02/21 12:30:54;;;;;;;5.50;2.37;;;;;;;;;;4970985;28;20217;-72
2022/02/21 12:33:32;;;;;;;5.10;2.00;;;;;;;;;;4932502;28;20221;-72
2022/02/21 12:35:59;;;;;;;4.47;1.90;;;;;;;;;;4953951;28;20356;-73
2022/02/21 12:38:29;;;;;;;4.03;1.67;;;;;;;;;;4963093;28;20218;-72
2022/02/21 12:41:02;;;;;;;3.70;2.00;;;;;;;;;;4977836;28;20312;-72
2022/02/21 12:43:58;;;;;;;5.30;2.10;;;;;;;;;;4998254;28;20317;-80
2022/02/21 12:46:29;;;;;;;3.67;1.87;;;;;;;;;;4970935;28;20226;-72
2022/02/21 12:48:55;;;;;;;2.93;2.27;;;;;;;;;;4962420;28;20318;-71
2022/02/21 12:51:30;;;;;;;4.93;2.30;;;;;;;;;;4986563;28;20310;-72
2022/02/21 12:54:10;;;;;;;3.73;2.43;;;;;;;;;;4971856;28;20272;-71
2022/02/21 12:56:47;;;;;;;6.27;2.07;;;;;;;;;;4980876;28;20297;-71
2022/02/21 12:59:18;;;;;;;3.90;2.73;;;;;;;;;;4970264;28;20345;-72
2022/02/21 13:01:44;;;;;;;4.70;2.60;;;;;;;;;;4964163;28;20218;-72
2022/02/21 13:04:14;;;;;;;3.73;2.90;;;;;;;;;;4967209;28;20219;-72
2022/02/21 13:06:40;;;;;;;3.37;2.60;;;;;;;;;;4977115;28;20242;-72
2022/02/21 13:09:08;;;;;;;4.60;3.17;;;;;;;;;;4961117;28;20229;-72
2022/02/21 13:11:38;;;;;;;4.20;2.90;;;;;;;;;;4971851;28;20693;-69
2022/02/21 13:14:04;;;;;;;4.57;3.03;;;;;;;;;;4971328;28;20226;-72
2022/02/21 13:16:36;;;;;;;3.87;2.87;;;;;;;;;;4971397;28;20214;-72
2022/02/21 13:19:03;;;;;;;4.90;2.80;;;;;;;;;;4951674;28;20215;-72
2022/02/21 13:21:30;;;;;;;2.63;2.43;;;;;;;;;;4959675;28;20649;-71
2022/02/21 13:24:00;;;;;;;3.50;2.57;;;;;;;;;;4973651;28;20217;-71
2022/02/21 13:26:26;;;;;;;3.40;3.10;;;;;;;;;;4974343;28;20220;-71
2022/02/21 13:28:53;;;;;;;4.40;3.23;;;;;;;;;;4982177;28;20241;-71
2022/02/21 13:31:21;;;;;;;2.87;2.50;;;;;;;;;;4953580;28;20269;-71
2022/02/21 13:33:51;;;;;;;3.20;2.90;;;;;;;;;;4973773;28;20297;-72
2022/02/21 13:36:24;;;;;;;2.97;2.67;;;;;;;;;;4971855;28;20238;-71
2022/02/21 13:38:55;;;;;;;2.80;2.47;;;;;;;;;;4970566;28;20238;-70
2022/02/21 13:41:23;;;;;;;3.57;2.80;;;;;;;;;;4956939;28;20222;-70
2022/02/21 13:43:49;;;;;;;3.80;2.77;;;;;;;;;;4959720;28;20302;-71
2022/02/21 13:46:16;;;;;;;3.07;2.50;;;;;;;;;;4945065;28;20226;-71
2022/02/21 13:48:50;;;;;;;3.20;2.50;;;;;;;;;;4964705;28;20276;-71
2022/02/21 13:51:19;;;;;;;2.73;2.30;;;;;;;;;;4972973;28;20218;-70
2022/02/21 13:53:45;;;;;;;2.77;2.10;;;;;;;;;;4975788;28;20249;-70
2022/02/21 13:56:15;;;;;;;4.27;2.40;;;;;;;;;;4987337;28;20659;-71
2022/02/21 13:58:44;;;;;;;2.47;2.20;;;;;;;;;;4983303;28;20229;-71
2022/02/21 14:01:17;;;;;;;4.83;2.30;;;;;;;;;;4977101;28;20253;-72
2022/02/21 14:03:53;;;;;;;2.67;1.83;;;;;;;;;;4938455;28;20218;-71
2022/02/21 14:06:41;;;;;;;3.23;1.97;;;;;;;;;;4954973;28;20701;-71
2022/02/21 14:09:14;;;;;;;2.17;1.70;;;;;;;;;;4970145;28;20225;-72
2022/02/21 14:11:41;;;;;;;1.90;1.70;;;;;;;;;;4960274;28;20300;-69
2022/02/21 14:14:15;;;;;;;3.67;2.30;;;;;;;;;;4986313;28;20288;-70
2022/02/21 14:16:45;;;;;;;2.90;2.10;;;;;;;;;;4976328;28;20221;-71
2022/02/21 14:19:13;;;;;;;3.93;2.43;;;;;;;;;;4987791;28;20220;-70
2022/02/21 14:21:47;;;;;;;4.47;2.80;;;;;;;;;;4970639;28;20253;-72
2022/02/21 14:24:13;;;;;;;3.33;2.47;;;;;;;;;;5000809;28;20220;-74
2022/02/21 14:26:39;;;;;;;2.43;2.00;;;;;;;;;;4972972;28;20287;-72
2022/02/21 14:29:07;;;;;;;3.20;2.23;;;;;;;;;;5002445;28;20218;-72
2022/02/21 14:31:35;;;;;;;5.27;3.07;;;;;;;;;;5000392;28;20217;-71
2022/02/21 14:34:03;;;;;;;4.83;2.67;;;;;;;;;;4979339;28;20277;-72
2022/02/21 14:36:28;;;;;;;4.87;3.10;;;;;;;;;;4954878;28;20221;-71
2022/02/21 14:38:57;;;;;;;3.13;2.37;;;;;;;;;;4970456;28;20218;-72
2022/02/21 14:41:24;;;;;;;3.40;2.30;;;;;;;;;;4981627;28;20250;-71
2022/02/21 14:43:50;;;;;;;3.70;2.97;;;;;;;;;;4966364;28;20570;-70
2022/02/21 14:46:16;;;;;;;3.20;2.90;;;;;;;;;;4953071;28;20226;-70
2022/02/21 14:48:45;;;;;;;3.73;3.30;;;;;;;;;;4995509;28;20218;-72
2022/02/21 14:51:11;;;;;;;4.17;3.30;;;;;;;;;;4962782;28;20277;-72